sensor_id;sensor_type;location;lat;lon;timestamp;temperature;humidity
41922;DHT22;27609;51.002;5.354;2022-09-27T00:02:03;10.60;99.90
41922;DHT22;27609;51.002;5.354;2022-09-27T00:04:29;10.70;99.90
41922;DHT22;27609;51.002;5.354;2022-09-27T00:06:55;10.60;99.90
41922;DHT22;27609;51.002;5.354;2022-09-27T00:09:20;10.70;99.90
41922;DHT22;27609;51.002;5.354;2022-09-27T00:11:46;10.70;99.90
41922;DHT22;27609;51.002;5.354;2022-09-27T00:14:14;10.70;99.90
41922;DHT22;27609;51.002;5.354;2022-09-27T00:16:41;11.40;99.90
41922;DHT22;27609;51.002;5.354;2022-09-27T00:19:11;10.60;99.90
41922;DHT22;27609;51.002;5.354;2022-09-27T00:21:38;10.60;99.90
41922;DHT22;27609;51.002;5.354;2022-09-27T00:24:04;10.60;99.90
41922;DHT22;27609;51.002;5.354;2022-09-27T00:26:30;10.60;99.90
41922;DHT22;27609;51.002;5.354;2022-09-27T00:28:57;10.60;99.90
41922;DHT22;27609;51.002;5.354;2022-09-27T00:31:28;10.50;99.90
41922;DHT22;27609;51.002;5.354;2022-09-27T00:33:55;10.50;99.90
41922;DHT22;27609;51.002;5.354;2022-09-27T00:36:22;10.60;99.90
41922;DHT22;27609;51.002;5.354;2022-09-27T00:38:49;10.60;99.90
41922;DHT22;27609;51.002;5.354;2022-09-27T00:41:21;10.70;99.90
41922;DHT22;27609;51.002;5.354;2022-09-27T00:43:53;10.80;99.90
41922;DHT22;27609;51.002;5.354;2022-09-27T00:46:43;10.70;99.90
41922;DHT22;27609;51.002;5.354;2022-09-27T00:49:18;10.60;99.90
41922;DHT22;27609;51.002;5.354;2022-09-27T00:51:47;10.70;99.90
41922;DHT22;27609;51.002;5.354;2022-09-27T00:54:16;10.60;99.90
41922;DHT22;27609;51.002;5.354;2022-09-27T00:56:44;10.60;99.90
41922;DHT22;27609;51.002;5.354;2022-09-27T00:59:15;10.60;99.90
41922;DHT22;27609;51.002;5.354;2022-09-27T01:01:42;10.60;99.90
41922;DHT22;27609;51.002;5.354;2022-09-27T01:04:10;10.60;99.90
41922;DHT22;27609;51.002;5.354;2022-09-27T01:06:37;10.60;99.90
41922;DHT22;27609;51.002;5.354;2022-09-27T01:09:07;10.50;99.90
41922;DHT22;27609;51.002;5.354;2022-09-27T01:11:41;10.50;99.90
41922;DHT22;27609;51.002;5.354;2022-09-27T01:30:15;10.40;99.90
41922;DHT22;27609;51.002;5.354;2022-09-27T01:32:54;10.50;99.90
41922;DHT22;27609;51.002;5.354;2022-09-27T01:38:22;10.50;99.90
41922;DHT22;27609;51.002;5.354;2022-09-27T01:41:03;10.40;99.90
41922;DHT22;27609;51.002;5.354;2022-09-27T01:43:49;10.30;99.90
41922;DHT22;27609;51.002;5.354;2022-09-27T01:46:41;10.20;99.90
41922;DHT22;27609;51.002;5.354;2022-09-27T01:49:11;10.20;99.90
41922;DHT22;27609;51.002;5.354;2022-09-27T01:51:54;10.80;99.90
41922;DHT22;27609;51.002;5.354;2022-09-27T01:54:25;10.30;99.90
41922;DHT22;27609;51.002;5.354;2022-09-27T01:56:55;10.30;99.90
41922;DHT22;27609;51.002;5.354;2022-09-27T01:59:32;10.20;99.90
41922;DHT22;27609;51.002;5.354;2022-09-27T02:02:03;10.20;99.90
41922;DHT22;27609;51.002;5.354;2022-09-27T02:04:36;10.10;99.90
41922;DHT22;27609;51.002;5.354;2022-09-27T02:07:35;10.10;99.90
41922;DHT22;27609;51.002;5.354;2022-09-27T02:10:05;10.10;99.90
41922;DHT22;27609;51.002;5.354;2022-09-27T02:12:39;10.10;99.90
41922;DHT22;27609;51.002;5.354;2022-09-27T02:15:12;10.50;99.90
41922;DHT22;27609;51.002;5.354;2022-09-27T02:20:30;10.10;99.90
41922;DHT22;27609;51.002;5.354;2022-09-27T02:25:29;10.00;99.90
41922;DHT22;27609;51.002;5.354;2022-09-27T02:28:12;10.60;99.90
41922;DHT22;27609;51.002;5.354;2022-09-27T02:30:41;10.10;99.90
41922;DHT22;27609;51.002;5.354;2022-09-27T02:33:07;10.10;99.90
41922;DHT22;27609;51.002;5.354;2022-09-27T02:35:34;10.00;99.90
41922;DHT22;27609;51.002;5.354;2022-09-27T02:38:00;11.10;99.90
41922;DHT22;27609;51.002;5.354;2022-09-27T02:40:31;10.20;99.90
41922;DHT22;27609;51.002;5.354;2022-09-27T02:43:02;10.10;99.90
41922;DHT22;27609;51.002;5.354;2022-09-27T02:48:35;9.90;99.90
41922;DHT22;27609;51.002;5.354;2022-09-27T02:51:18;9.90;99.90
41922;DHT22;27609;51.002;5.354;2022-09-27T02:54:15;9.90;99.90
41922;DHT22;27609;51.002;5.354;2022-09-27T02:56:53;10.00;99.90
41922;DHT22;27609;51.002;5.354;2022-09-27T03:04:50;10.10;99.90
41922;DHT22;27609;51.002;5.354;2022-09-27T03:07:19;10.10;99.90
41922;DHT22;27609;51.002;5.354;2022-09-27T03:09:47;10.20;99.90
41922;DHT22;27609;51.002;5.354;2022-09-27T03:12:15;10.10;99.90
41922;DHT22;27609;51.002;5.354;2022-09-27T03:14:47;10.30;99.90
41922;DHT22;27609;51.002;5.354;2022-09-27T03:17:13;10.30;99.90
41922;DHT22;27609;51.002;5.354;2022-09-27T03:19:39;10.40;99.90
41922;DHT22;27609;51.002;5.354;2022-09-27T03:22:04;10.40;99.90
41922;DHT22;27609;51.002;5.354;2022-09-27T03:24:30;10.30;99.90
41922;DHT22;27609;51.002;5.354;2022-09-27T03:26:58;10.40;99.90
41922;DHT22;27609;51.002;5.354;2022-09-27T03:29:24;10.40;99.90
41922;DHT22;27609;51.002;5.354;2022-09-27T03:31:53;10.50;99.90
41922;DHT22;27609;51.002;5.354;2022-09-27T03:34:19;10.60;99.90
41922;DHT22;27609;51.002;5.354;2022-09-27T03:36:44;10.50;99.90
41922;DHT22;27609;51.002;5.354;2022-09-27T03:39:10;10.60;99.90
41922;DHT22;27609;51.002;5.354;2022-09-27T03:41:38;11.10;99.90
41922;DHT22;27609;51.002;5.354;2022-09-27T03:44:04;10.40;99.90
41922;DHT22;27609;51.002;5.354;2022-09-27T03:46:29;10.30;99.90
41922;DHT22;27609;51.002;5.354;2022-09-27T03:48:55;10.40;99.90
41922;DHT22;27609;51.002;5.354;2022-09-27T03:51:21;10.80;99.90
41922;DHT22;27609;51.002;5.354;2022-09-27T03:53:47;10.70;99.90
41922;DHT22;27609;51.002;5.354;2022-09-27T03:56:13;10.30;99.90
41922;DHT22;27609;51.002;5.354;2022-09-27T03:58:39;10.30;99.90
41922;DHT22;27609;51.002;5.354;2022-09-27T04:01:05;10.30;99.90
41922;DHT22;27609;51.002;5.354;2022-09-27T04:03:30;10.30;99.90
41922;DHT22;27609;51.002;5.354;2022-09-27T04:05:56;10.30;99.90
41922;DHT22;27609;51.002;5.354;2022-09-27T04:08:22;11.20;99.90
41922;DHT22;27609;51.002;5.354;2022-09-27T04:10:48;11.00;99.90
41922;DHT22;27609;51.002;5.354;2022-09-27T04:13:13;11.00;99.90
41922;DHT22;27609;51.002;5.354;2022-09-27T04:15:39;10.10;99.90
41922;DHT22;27609;51.002;5.354;2022-09-27T04:18:05;9.90;99.90
41922;DHT22;27609;51.002;5.354;2022-09-27T04:20:33;10.00;99.90
41922;DHT22;27609;51.002;5.354;2022-09-27T04:22:59;10.20;99.90
41922;DHT22;27609;51.002;5.354;2022-09-27T04:25:24;9.80;99.90
41922;DHT22;27609;51.002;5.354;2022-09-27T04:27:50;9.50;99.90
41922;DHT22;27609;51.002;5.354;2022-09-27T04:30:20;9.60;99.90
41922;DHT22;27609;51.002;5.354;2022-09-27T04:32:45;9.60;99.90
41922;DHT22;27609;51.002;5.354;2022-09-27T04:35:13;9.60;99.90
41922;DHT22;27609;51.002;5.354;2022-09-27T04:37:58;9.90;99.90
41922;DHT22;27609;51.002;5.354;2022-09-27T04:40:24;9.90;99.90
41922;DHT22;27609;51.002;5.354;2022-09-27T04:42:51;9.70;99.90
41922;DHT22;27609;51.002;5.354;2022-09-27T04:45:17;9.80;99.90
41922;DHT22;27609;51.002;5.354;2022-09-27T04:47:44;9.80;99.90
41922;DHT22;27609;51.002;5.354;2022-09-27T04:50:11;10.50;99.90
41922;DHT22;27609;51.002;5.354;2022-09-27T04:52:37;9.70;99.90
41922;DHT22;27609;51.002;5.354;2022-09-27T04:55:03;9.80;99.90
41922;DHT22;27609;51.002;5.354;2022-09-27T04:57:29;9.80;99.90
41922;DHT22;27609;51.002;5.354;2022-09-27T04:59:55;9.70;99.90
41922;DHT22;27609;51.002;5.354;2022-09-27T05:02:24;9.60;99.90
41922;DHT22;27609;51.002;5.354;2022-09-27T05:04:51;9.60;99.90
41922;DHT22;27609;51.002;5.354;2022-09-27T05:07:17;10.60;99.90
41922;DHT22;27609;51.002;5.354;2022-09-27T05:09:43;9.60;99.90
41922;DHT22;27609;51.002;5.354;2022-09-27T05:12:10;9.60;99.90
41922;DHT22;27609;51.002;5.354;2022-09-27T05:14:38;9.70;99.90
41922;DHT22;27609;51.002;5.354;2022-09-27T05:17:04;10.50;99.90
41922;DHT22;27609;51.002;5.354;2022-09-27T05:19:32;10.00;99.90
41922;DHT22;27609;51.002;5.354;2022-09-27T05:21:58;10.00;99.90
41922;DHT22;27609;51.002;5.354;2022-09-27T05:24:24;10.40;99.90
41922;DHT22;27609;51.002;5.354;2022-09-27T05:26:49;10.70;99.90
41922;DHT22;27609;51.002;5.354;2022-09-27T05:29:15;10.10;99.90
41922;DHT22;27609;51.002;5.354;2022-09-27T05:31:42;10.10;99.90
41922;DHT22;27609;51.002;5.354;2022-09-27T05:34:07;10.10;99.90
41922;DHT22;27609;51.002;5.354;2022-09-27T05:36:36;10.10;99.90
41922;DHT22;27609;51.002;5.354;2022-09-27T05:39:03;11.00;99.90
41922;DHT22;27609;51.002;5.354;2022-09-27T05:41:28;10.20;99.90
41922;DHT22;27609;51.002;5.354;2022-09-27T05:43:57;10.20;99.90
41922;DHT22;27609;51.002;5.354;2022-09-27T05:46:23;10.70;99.90
41922;DHT22;27609;51.002;5.354;2022-09-27T05:48:48;10.00;99.90
41922;DHT22;27609;51.002;5.354;2022-09-27T05:51:14;10.10;99.90
41922;DHT22;27609;51.002;5.354;2022-09-27T05:53:40;9.80;99.90
41922;DHT22;27609;51.002;5.354;2022-09-27T05:56:05;10.10;99.90
41922;DHT22;27609;51.002;5.354;2022-09-27T05:58:31;10.70;99.90
41922;DHT22;27609;51.002;5.354;2022-09-27T06:00:59;9.70;99.90
41922;DHT22;27609;51.002;5.354;2022-09-27T06:03:24;9.80;99.90
41922;DHT22;27609;51.002;5.354;2022-09-27T06:05:50;9.90;99.90
41922;DHT22;27609;51.002;5.354;2022-09-27T06:08:16;9.80;99.90
41922;DHT22;27609;51.002;5.354;2022-09-27T06:10:44;9.90;99.90
41922;DHT22;27609;51.002;5.354;2022-09-27T06:13:12;9.80;99.90
41922;DHT22;27609;51.002;5.354;2022-09-27T06:15:40;10.00;99.90
41922;DHT22;27609;51.002;5.354;2022-09-27T06:18:10;9.90;99.90
41922;DHT22;27609;51.002;5.354;2022-09-27T06:20:37;10.30;99.90
41922;DHT22;27609;51.002;5.354;2022-09-27T06:23:14;9.70;99.90
41922;DHT22;27609;51.002;5.354;2022-09-27T06:25:40;10.40;99.90
41922;DHT22;27609;51.002;5.354;2022-09-27T06:28:07;9.50;99.90
41922;DHT22;27609;51.002;5.354;2022-09-27T06:30:40;9.40;99.90
41922;DHT22;27609;51.002;5.354;2022-09-27T06:33:08;9.30;99.90
41922;DHT22;27609;51.002;5.354;2022-09-27T06:35:35;9.50;99.90
41922;DHT22;27609;51.002;5.354;2022-09-27T06:38:05;9.60;99.90
41922;DHT22;27609;51.002;5.354;2022-09-27T06:40:33;9.50;99.90
41922;DHT22;27609;51.002;5.354;2022-09-27T06:43:07;9.50;99.90
41922;DHT22;27609;51.002;5.354;2022-09-27T06:45:34;9.40;99.90
41922;DHT22;27609;51.002;5.354;2022-09-27T06:48:02;9.40;99.90
41922;DHT22;27609;51.002;5.354;2022-09-27T06:50:32;9.40;99.90
41922;DHT22;27609;51.002;5.354;2022-09-27T06:52:58;9.40;99.90
41922;DHT22;27609;51.002;5.354;2022-09-27T06:55:24;9.50;99.90
41922;DHT22;27609;51.002;5.354;2022-09-27T06:57:57;9.50;99.90
41922;DHT22;27609;51.002;5.354;2022-09-27T07:00:41;9.60;99.90
41922;DHT22;27609;51.002;5.354;2022-09-27T07:03:10;9.70;99.90
41922;DHT22;27609;51.002;5.354;2022-09-27T07:05:38;9.80;99.90
41922;DHT22;27609;51.002;5.354;2022-09-27T07:08:06;10.00;99.90
41922;DHT22;27609;51.002;5.354;2022-09-27T07:10:34;10.00;99.90
41922;DHT22;27609;51.002;5.354;2022-09-27T07:13:05;11.10;99.90
41922;DHT22;27609;51.002;5.354;2022-09-27T07:15:36;10.10;99.90
41922;DHT22;27609;51.002;5.354;2022-09-27T07:18:04;10.20;99.90
41922;DHT22;27609;51.002;5.354;2022-09-27T07:20:30;10.30;99.90
41922;DHT22;27609;51.002;5.354;2022-09-27T07:22:57;10.50;99.90
41922;DHT22;27609;51.002;5.354;2022-09-27T07:25:25;10.50;99.90
41922;DHT22;27609;51.002;5.354;2022-09-27T07:27:51;10.40;99.90
41922;DHT22;27609;51.002;5.354;2022-09-27T07:30:18;10.90;99.90
41922;DHT22;27609;51.002;5.354;2022-09-27T07:32:44;10.60;99.90
41922;DHT22;27609;51.002;5.354;2022-09-27T07:35:11;10.30;99.90
41922;DHT22;27609;51.002;5.354;2022-09-27T07:37:38;10.40;99.90
41922;DHT22;27609;51.002;5.354;2022-09-27T07:40:07;10.40;99.90
41922;DHT22;27609;51.002;5.354;2022-09-27T07:42:34;10.50;99.90
41922;DHT22;27609;51.002;5.354;2022-09-27T07:45:04;10.40;99.90
41922;DHT22;27609;51.002;5.354;2022-09-27T07:47:31;10.50;99.90
41922;DHT22;27609;51.002;5.354;2022-09-27T07:49:57;10.60;99.90
41922;DHT22;27609;51.002;5.354;2022-09-27T07:52:23;10.50;99.90
41922;DHT22;27609;51.002;5.354;2022-09-27T07:54:49;10.50;99.90
41922;DHT22;27609;51.002;5.354;2022-09-27T07:57:15;10.50;99.90
41922;DHT22;27609;51.002;5.354;2022-09-27T07:59:40;10.50;99.90
41922;DHT22;27609;51.002;5.354;2022-09-27T08:02:13;10.50;99.90
41922;DHT22;27609;51.002;5.354;2022-09-27T08:04:39;10.80;99.90
41922;DHT22;27609;51.002;5.354;2022-09-27T08:07:07;10.90;99.90
41922;DHT22;27609;51.002;5.354;2022-09-27T08:09:32;10.90;99.90
41922;DHT22;27609;51.002;5.354;2022-09-27T08:11:58;11.40;99.90
41922;DHT22;27609;51.002;5.354;2022-09-27T08:14:24;11.00;99.90
41922;DHT22;27609;51.002;5.354;2022-09-27T08:16:49;11.00;99.90
41922;DHT22;27609;51.002;5.354;2022-09-27T08:19:16;10.90;99.90
41922;DHT22;27609;51.002;5.354;2022-09-27T08:21:44;10.90;99.90
41922;DHT22;27609;51.002;5.354;2022-09-27T08:24:10;10.60;99.90
41922;DHT22;27609;51.002;5.354;2022-09-27T08:26:37;10.60;99.90
41922;DHT22;27609;51.002;5.354;2022-09-27T08:29:02;10.60;99.90
41922;DHT22;27609;51.002;5.354;2022-09-27T08:31:30;10.60;99.90
41922;DHT22;27609;51.002;5.354;2022-09-27T08:33:56;10.60;99.90
41922;DHT22;27609;51.002;5.354;2022-09-27T08:36:22;10.90;99.90
41922;DHT22;27609;51.002;5.354;2022-09-27T08:38:51;11.20;99.90
41922;DHT22;27609;51.002;5.354;2022-09-27T08:41:34;11.40;99.90
41922;DHT22;27609;51.002;5.354;2022-09-27T08:44:07;11.30;99.90
41922;DHT22;27609;51.002;5.354;2022-09-27T08:47:00;11.40;99.90
41922;DHT22;27609;51.002;5.354;2022-09-27T08:49:37;11.60;99.90
41922;DHT22;27609;51.002;5.354;2022-09-27T08:52:07;12.20;99.90
41922;DHT22;27609;51.002;5.354;2022-09-27T08:54:38;12.20;99.90
41922;DHT22;27609;51.002;5.354;2022-09-27T08:57:09;12.00;99.90
41922;DHT22;27609;51.002;5.354;2022-09-27T08:59:42;12.10;99.90
41922;DHT22;27609;51.002;5.354;2022-09-27T09:02:19;12.10;99.90
41922;DHT22;27609;51.002;5.354;2022-09-27T09:04:48;12.30;99.90
41922;DHT22;27609;51.002;5.354;2022-09-27T09:10:17;12.30;99.90
41922;DHT22;27609;51.002;5.354;2022-09-27T09:18:52;12.70;99.90
41922;DHT22;27609;51.002;5.354;2022-09-27T09:31:41;12.70;99.90
41922;DHT22;27609;51.002;5.354;2022-09-27T09:34:15;12.40;99.90
41922;DHT22;27609;51.002;5.354;2022-09-27T09:36:46;12.30;99.90
41922;DHT22;27609;51.002;5.354;2022-09-27T09:39:23;12.40;99.90
41922;DHT22;27609;51.002;5.354;2022-09-27T09:42:09;12.30;99.90
41922;DHT22;27609;51.002;5.354;2022-09-27T09:44:50;12.40;99.90
41922;DHT22;27609;51.002;5.354;2022-09-27T09:47:39;12.70;99.90
41922;DHT22;27609;51.002;5.354;2022-09-27T09:50:28;13.00;99.90
41922;DHT22;27609;51.002;5.354;2022-09-27T09:53:08;13.20;99.90
41922;DHT22;27609;51.002;5.354;2022-09-27T09:55:37;13.60;99.90
41922;DHT22;27609;51.002;5.354;2022-09-27T10:01:33;14.00;99.90
41922;DHT22;27609;51.002;5.354;2022-09-27T10:04:02;13.90;99.90
41922;DHT22;27609;51.002;5.354;2022-09-27T10:06:28;13.70;99.90
41922;DHT22;27609;51.002;5.354;2022-09-27T10:08:55;13.80;99.90
41922;DHT22;27609;51.002;5.354;2022-09-27T10:11:24;13.50;99.90
41922;DHT22;27609;51.002;5.354;2022-09-27T10:13:51;13.20;99.90
41922;DHT22;27609;51.002;5.354;2022-09-27T10:16:18;13.50;99.90
41922;DHT22;27609;51.002;5.354;2022-09-27T10:18:46;13.40;99.90
41922;DHT22;27609;51.002;5.354;2022-09-27T10:21:21;13.50;99.90
41922;DHT22;27609;51.002;5.354;2022-09-27T10:24:11;13.60;99.90
41922;DHT22;27609;51.002;5.354;2022-09-27T10:26:39;14.00;99.90
41922;DHT22;27609;51.002;5.354;2022-09-27T10:29:14;14.00;99.90
41922;DHT22;27609;51.002;5.354;2022-09-27T10:31:42;14.10;99.90
41922;DHT22;27609;51.002;5.354;2022-09-27T10:34:33;14.00;99.90
41922;DHT22;27609;51.002;5.354;2022-09-27T10:39:36;13.00;99.90
41922;DHT22;27609;51.002;5.354;2022-09-27T10:44:57;13.00;99.90
41922;DHT22;27609;51.002;5.354;2022-09-27T10:47:23;13.20;99.90
41922;DHT22;27609;51.002;5.354;2022-09-27T10:49:51;13.00;99.90
41922;DHT22;27609;51.002;5.354;2022-09-27T10:52:23;12.60;99.90
41922;DHT22;27609;51.002;5.354;2022-09-27T10:54:56;12.90;99.90
41922;DHT22;27609;51.002;5.354;2022-09-27T10:57:24;13.10;99.90
41922;DHT22;27609;51.002;5.354;2022-09-27T11:00:01;13.00;99.90
41922;DHT22;27609;51.002;5.354;2022-09-27T11:02:36;13.00;99.90
41922;DHT22;27609;51.002;5.354;2022-09-27T11:05:11;13.00;99.90
41922;DHT22;27609;51.002;5.354;2022-09-27T11:07:51;13.10;99.90
41922;DHT22;27609;51.002;5.354;2022-09-27T11:10:24;12.80;99.90
41922;DHT22;27609;51.002;5.354;2022-09-27T11:15:46;12.60;99.90
41922;DHT22;27609;51.002;5.354;2022-09-27T11:18:36;12.30;99.90
41922;DHT22;27609;51.002;5.354;2022-09-27T11:37:55;11.40;99.90
41922;DHT22;27609;51.002;5.354;2022-09-27T11:41:11;11.60;99.90
41922;DHT22;27609;51.002;5.354;2022-09-27T11:43:47;11.70;99.90
41922;DHT22;27609;51.002;5.354;2022-09-27T11:46:31;12.10;99.90
41922;DHT22;27609;51.002;5.354;2022-09-27T11:56:58;12.20;99.90
41922;DHT22;27609;51.002;5.354;2022-09-27T12:10:17;13.60;99.90
41922;DHT22;27609;51.002;5.354;2022-09-27T12:12:49;14.00;99.90
41922;DHT22;27609;51.002;5.354;2022-09-27T12:17:49;14.40;99.90
41922;DHT22;27609;51.002;5.354;2022-09-27T12:20:23;13.60;99.90
41922;DHT22;27609;51.002;5.354;2022-09-27T12:23:28;13.50;99.90
41922;DHT22;27609;51.002;5.354;2022-09-27T12:25:47;13.50;99.90
41922;DHT22;27609;51.002;5.354;2022-09-27T12:31:15;14.00;99.90
41922;DHT22;27609;51.002;5.354;2022-09-27T12:34:05;14.40;99.90
41922;DHT22;27609;51.002;5.354;2022-09-27T12:36:36;14.20;99.90
41922;DHT22;27609;51.002;5.354;2022-09-27T12:42:00;13.20;99.90
41922;DHT22;27609;51.002;5.354;2022-09-27T12:44:37;12.70;99.90
41922;DHT22;27609;51.002;5.354;2022-09-27T12:53:22;10.70;99.90
41922;DHT22;27609;51.002;5.354;2022-09-27T13:12:25;10.80;99.90
41922;DHT22;27609;51.002;5.354;2022-09-27T13:15:46;10.90;99.90
41922;DHT22;27609;51.002;5.354;2022-09-27T13:17:49;11.10;99.90
41922;DHT22;27609;51.002;5.354;2022-09-27T13:22:57;11.50;99.90
41922;DHT22;27609;51.002;5.354;2022-09-27T13:25:52;11.60;99.90
41922;DHT22;27609;51.002;5.354;2022-09-27T13:31:06;11.30;99.90
41922;DHT22;27609;51.002;5.354;2022-09-27T13:33:51;11.60;99.90
41922;DHT22;27609;51.002;5.354;2022-09-27T13:47:28;12.50;99.90
41922;DHT22;27609;51.002;5.354;2022-09-27T13:50:16;12.60;99.90
41922;DHT22;27609;51.002;5.354;2022-09-27T13:55:44;14.00;99.90
41922;DHT22;27609;51.002;5.354;2022-09-27T13:58:29;14.90;99.90
41922;DHT22;27609;51.002;5.354;2022-09-27T14:01:09;15.40;99.90
41922;DHT22;27609;51.002;5.354;2022-09-27T14:03:36;14.50;99.90
41922;DHT22;27609;51.002;5.354;2022-09-27T14:06:06;14.20;99.90
41922;DHT22;27609;51.002;5.354;2022-09-27T14:08:45;13.80;99.90
41922;DHT22;27609;51.002;5.354;2022-09-27T14:11:16;13.80;99.90
41922;DHT22;27609;51.002;5.354;2022-09-27T14:13:44;14.30;99.90
41922;DHT22;27609;51.002;5.354;2022-09-27T14:16:14;15.10;99.90
41922;DHT22;27609;51.002;5.354;2022-09-27T14:18:47;14.70;99.90
41922;DHT22;27609;51.002;5.354;2022-09-27T14:21:36;13.50;99.90
41922;DHT22;27609;51.002;5.354;2022-09-27T14:32:28;13.30;99.90
41922;DHT22;27609;51.002;5.354;2022-09-27T14:35:17;12.70;99.90
41922;DHT22;27609;51.002;5.354;2022-09-27T14:38:05;12.50;99.90
41922;DHT22;27609;51.002;5.354;2022-09-27T14:40:36;12.50;99.90
41922;DHT22;27609;51.002;5.354;2022-09-27T14:43:03;12.80;99.90
41922;DHT22;27609;51.002;5.354;2022-09-27T14:45:35;12.80;99.90
41922;DHT22;27609;51.002;5.354;2022-09-27T14:48:18;12.80;99.90
41922;DHT22;27609;51.002;5.354;2022-09-27T14:50:53;12.60;99.90
41922;DHT22;27609;51.002;5.354;2022-09-27T14:53:24;12.60;99.90
41922;DHT22;27609;51.002;5.354;2022-09-27T14:55:51;12.50;99.90
41922;DHT22;27609;51.002;5.354;2022-09-27T14:58:21;12.60;99.90
41922;DHT22;27609;51.002;5.354;2022-09-27T15:00:51;12.70;99.90
41922;DHT22;27609;51.002;5.354;2022-09-27T15:03:44;13.10;99.90
41922;DHT22;27609;51.002;5.354;2022-09-27T15:06:10;13.10;99.90
41922;DHT22;27609;51.002;5.354;2022-09-27T15:08:37;13.10;99.90
41922;DHT22;27609;51.002;5.354;2022-09-27T15:11:04;13.10;99.90
41922;DHT22;27609;51.002;5.354;2022-09-27T15:13:32;12.90;99.90
41922;DHT22;27609;51.002;5.354;2022-09-27T15:16:04;13.20;99.90
41922;DHT22;27609;51.002;5.354;2022-09-27T15:21:00;13.50;99.90
41922;DHT22;27609;51.002;5.354;2022-09-27T15:23:28;13.80;99.90
41922;DHT22;27609;51.002;5.354;2022-09-27T15:28:28;13.80;99.90
41922;DHT22;27609;51.002;5.354;2022-09-27T15:30:56;13.80;99.90
41922;DHT22;27609;51.002;5.354;2022-09-27T15:33:27;13.90;99.90
41922;DHT22;27609;51.002;5.354;2022-09-27T15:35:56;14.00;99.90
41922;DHT22;27609;51.002;5.354;2022-09-27T15:41:09;14.20;99.90
41922;DHT22;27609;51.002;5.354;2022-09-27T15:46:36;14.20;99.90
41922;DHT22;27609;51.002;5.354;2022-09-27T15:49:21;14.10;99.90
41922;DHT22;27609;51.002;5.354;2022-09-27T15:51:52;14.20;99.90
41922;DHT22;27609;51.002;5.354;2022-09-27T15:54:20;14.00;99.90
41922;DHT22;27609;51.002;5.354;2022-09-27T15:56:47;14.00;99.90
41922;DHT22;27609;51.002;5.354;2022-09-27T15:59:27;13.70;99.90
41922;DHT22;27609;51.002;5.354;2022-09-27T16:02:02;13.70;99.90
41922;DHT22;27609;51.002;5.354;2022-09-27T16:04:29;13.70;99.90
41922;DHT22;27609;51.002;5.354;2022-09-27T16:06:58;13.60;99.90
41922;DHT22;27609;51.002;5.354;2022-09-27T16:09:25;13.70;99.90
41922;DHT22;27609;51.002;5.354;2022-09-27T16:11:51;13.50;99.90
41922;DHT22;27609;51.002;5.354;2022-09-27T16:14:17;13.00;99.90
41922;DHT22;27609;51.002;5.354;2022-09-27T16:16:50;12.30;99.90
41922;DHT22;27609;51.002;5.354;2022-09-27T16:19:16;11.70;99.90
41922;DHT22;27609;51.002;5.354;2022-09-27T16:21:42;11.30;99.90
41922;DHT22;27609;51.002;5.354;2022-09-27T16:24:09;11.10;99.90
41922;DHT22;27609;51.002;5.354;2022-09-27T16:26:35;10.80;99.90
41922;DHT22;27609;51.002;5.354;2022-09-27T16:29:01;10.70;99.90
41922;DHT22;27609;51.002;5.354;2022-09-27T16:31:28;10.70;99.90
41922;DHT22;27609;51.002;5.354;2022-09-27T16:33:53;10.80;99.90
41922;DHT22;27609;51.002;5.354;2022-09-27T16:36:19;10.80;99.90
41922;DHT22;27609;51.002;5.354;2022-09-27T16:38:49;10.80;99.90
41922;DHT22;27609;51.002;5.354;2022-09-27T16:41:17;10.70;99.90
41922;DHT22;27609;51.002;5.354;2022-09-27T16:43:44;10.70;99.90
41922;DHT22;27609;51.002;5.354;2022-09-27T16:46:10;10.90;99.90
41922;DHT22;27609;51.002;5.354;2022-09-27T16:48:39;10.90;99.90
41922;DHT22;27609;51.002;5.354;2022-09-27T16:51:08;10.80;99.90
41922;DHT22;27609;51.002;5.354;2022-09-27T16:53:53;10.70;99.90
41922;DHT22;27609;51.002;5.354;2022-09-27T16:56:19;10.70;99.90
41922;DHT22;27609;51.002;5.354;2022-09-27T16:58:46;10.60;99.90
41922;DHT22;27609;51.002;5.354;2022-09-27T17:01:15;10.50;99.90
41922;DHT22;27609;51.002;5.354;2022-09-27T17:03:42;10.50;99.90
41922;DHT22;27609;51.002;5.354;2022-09-27T17:06:09;11.40;99.90
41922;DHT22;27609;51.002;5.354;2022-09-27T17:08:35;10.50;99.90
41922;DHT22;27609;51.002;5.354;2022-09-27T17:11:00;10.50;99.90
41922;DHT22;27609;51.002;5.354;2022-09-27T17:13:26;10.50;99.90
41922;DHT22;27609;51.002;5.354;2022-09-27T17:15:52;10.50;99.90
41922;DHT22;27609;51.002;5.354;2022-09-27T17:18:18;10.50;99.90
41922;DHT22;27609;51.002;5.354;2022-09-27T17:20:44;10.40;99.90
41922;DHT22;27609;51.002;5.354;2022-09-27T17:23:09;10.30;99.90
41922;DHT22;27609;51.002;5.354;2022-09-27T17:25:35;10.80;99.90
41922;DHT22;27609;51.002;5.354;2022-09-27T17:28:01;10.30;99.90
41922;DHT22;27609;51.002;5.354;2022-09-27T17:30:27;10.70;99.90
41922;DHT22;27609;51.002;5.354;2022-09-27T17:32:52;10.20;99.90
41922;DHT22;27609;51.002;5.354;2022-09-27T17:35:18;10.20;99.90
41922;DHT22;27609;51.002;5.354;2022-09-27T17:37:44;11.30;99.90
41922;DHT22;27609;51.002;5.354;2022-09-27T17:40:10;10.00;99.90
41922;DHT22;27609;51.002;5.354;2022-09-27T17:42:36;10.10;99.90
41922;DHT22;27609;51.002;5.354;2022-09-27T17:45:02;10.10;99.90
41922;DHT22;27609;51.002;5.354;2022-09-27T17:47:28;10.10;99.90
41922;DHT22;27609;51.002;5.354;2022-09-27T17:50:12;10.10;99.90
41922;DHT22;27609;51.002;5.354;2022-09-27T17:52:51;10.10;99.90
41922;DHT22;27609;51.002;5.354;2022-09-27T17:55:17;10.10;99.90
41922;DHT22;27609;51.002;5.354;2022-09-27T17:57:46;10.10;99.90
41922;DHT22;27609;51.002;5.354;2022-09-27T18:00:13;10.00;99.90
41922;DHT22;27609;51.002;5.354;2022-09-27T18:02:39;10.00;99.90
41922;DHT22;27609;51.002;5.354;2022-09-27T18:05:05;10.00;99.90
41922;DHT22;27609;51.002;5.354;2022-09-27T18:07:31;10.00;99.90
41922;DHT22;27609;51.002;5.354;2022-09-27T18:09:58;10.00;99.90
41922;DHT22;27609;51.002;5.354;2022-09-27T18:12:24;10.00;99.90
41922;DHT22;27609;51.002;5.354;2022-09-27T18:14:56;10.10;99.90
41922;DHT22;27609;51.002;5.354;2022-09-27T18:17:22;11.00;99.90
41922;DHT22;27609;51.002;5.354;2022-09-27T18:19:48;10.20;99.90
41922;DHT22;27609;51.002;5.354;2022-09-27T18:22:14;10.30;99.90
41922;DHT22;27609;51.002;5.354;2022-09-27T18:24:40;10.20;99.90
41922;DHT22;27609;51.002;5.354;2022-09-27T18:27:05;10.40;99.90
41922;DHT22;27609;51.002;5.354;2022-09-27T18:29:31;11.10;99.90
41922;DHT22;27609;51.002;5.354;2022-09-27T18:31:59;10.50;99.90
41922;DHT22;27609;51.002;5.354;2022-09-27T18:34:27;10.70;99.90
41922;DHT22;27609;51.002;5.354;2022-09-27T18:36:53;10.60;99.90
41922;DHT22;27609;51.002;5.354;2022-09-27T18:39:18;10.40;99.90
41922;DHT22;27609;51.002;5.354;2022-09-27T18:41:45;10.40;99.90